sensor_id;sensor_type;location;lat;lon;timestamp;P1;durP1;ratioP1;P2;durP2;ratioP2
76818;SDS011;65772;51.096;17.006;2022-12-29T00:01:30;5.80;;;2.60;;
76818;SDS011;65772;51.096;17.006;2022-12-29T00:04:01;6.40;;;2.70;;
76818;SDS011;65772;51.096;17.006;2022-12-29T00:06:41;6.40;;;3.30;;
76818;SDS011;65772;51.096;17.006;2022-12-29T00:09:12;7.80;;;2.90;;
76818;SDS011;65772;51.096;17.006;2022-12-29T00:14:13;5.20;;;2.00;;
76818;SDS011;65772;51.096;17.006;2022-12-29T00:17:02;8.00;;;2.80;;
76818;SDS011;65772;51.096;17.006;2022-12-29T00:19:32;4.90;;;2.30;;
76818;SDS011;65772;51.096;17.006;2022-12-29T00:22:20;4.50;;;2.50;;
76818;SDS011;65772;51.096;17.006;2022-12-29T00:25:09;5.10;;;2.30;;
76818;SDS011;65772;51.096;17.006;2022-12-29T00:27:59;5.30;;;2.20;;
76818;SDS011;65772;51.096;17.006;2022-12-29T00:30:47;5.80;;;2.40;;
76818;SDS011;65772;51.096;17.006;2022-12-29T00:33:36;4.90;;;2.30;;
76818;SDS011;65772;51.096;17.006;2022-12-29T00:36:25;4.70;;;2.40;;
76818;SDS011;65772;51.096;17.006;2022-12-29T00:38:59;6.30;;;2.10;;
76818;SDS011;65772;51.096;17.006;2022-12-29T00:41:49;4.80;;;2.20;;
76818;SDS011;65772;51.096;17.006;2022-12-29T00:44:49;7.20;;;2.60;;
76818;SDS011;65772;51.096;17.006;2022-12-29T00:47:20;5.80;;;2.70;;
76818;SDS011;65772;51.096;17.006;2022-12-29T00:49:50;5.30;;;2.10;;
76818;SDS011;65772;51.096;17.006;2022-12-29T00:52:22;5.10;;;2.20;;
76818;SDS011;65772;51.096;17.006;2022-12-29T00:54:52;5.90;;;2.30;;
76818;SDS011;65772;51.096;17.006;2022-12-29T00:57:23;5.80;;;2.40;;
76818;SDS011;65772;51.096;17.006;2022-12-29T00:59:54;6.20;;;2.70;;
76818;SDS011;65772;51.096;17.006;2022-12-29T01:02:24;5.10;;;2.50;;
76818;SDS011;65772;51.096;17.006;2022-12-29T01:04:55;5.30;;;2.40;;
76818;SDS011;65772;51.096;17.006;2022-12-29T01:07:26;6.00;;;3.20;;
76818;SDS011;65772;51.096;17.006;2022-12-29T01:09:56;5.20;;;2.60;;
76818;SDS011;65772;51.096;17.006;2022-12-29T01:12:39;5.80;;;3.00;;
76818;SDS011;65772;51.096;17.006;2022-12-29T01:15:11;6.00;;;2.50;;
76818;SDS011;65772;51.096;17.006;2022-12-29T01:17:43;4.50;;;1.70;;
76818;SDS011;65772;51.096;17.006;2022-12-29T01:20:14;5.00;;;2.20;;
76818;SDS011;65772;51.096;17.006;2022-12-29T01:22:45;5.10;;;2.00;;
76818;SDS011;65772;51.096;17.006;2022-12-29T01:25:19;4.60;;;2.00;;
76818;SDS011;65772;51.096;17.006;2022-12-29T01:27:50;4.90;;;2.10;;
76818;SDS011;65772;51.096;17.006;2022-12-29T01:30:21;4.20;;;2.10;;
76818;SDS011;65772;51.096;17.006;2022-12-29T01:35:22;5.40;;;1.90;;
76818;SDS011;65772;51.096;17.006;2022-12-29T01:37:52;4.40;;;2.20;;
76818;SDS011;65772;51.096;17.006;2022-12-29T01:40:23;4.80;;;2.00;;
76818;SDS011;65772;51.096;17.006;2022-12-29T01:42:54;4.30;;;1.60;;
76818;SDS011;65772;51.096;17.006;2022-12-29T01:45:24;3.80;;;1.70;;
76818;SDS011;65772;51.096;17.006;2022-12-29T01:47:56;5.80;;;2.00;;
76818;SDS011;65772;51.096;17.006;2022-12-29T01:50:30;7.30;;;3.30;;
76818;SDS011;65772;51.096;17.006;2022-12-29T01:53:05;4.10;;;2.20;;
76818;SDS011;65772;51.096;17.006;2022-12-29T01:55:42;5.80;;;2.20;;
76818;SDS011;65772;51.096;17.006;2022-12-29T01:58:15;5.70;;;2.10;;
76818;SDS011;65772;51.096;17.006;2022-12-29T02:00:49;6.00;;;2.20;;
76818;SDS011;65772;51.096;17.006;2022-12-29T02:03:20;3.90;;;1.80;;
76818;SDS011;65772;51.096;17.006;2022-12-29T02:05:54;5.40;;;1.80;;
76818;SDS011;65772;51.096;17.006;2022-12-29T02:08:31;5.90;;;1.70;;
76818;SDS011;65772;51.096;17.006;2022-12-29T02:11:01;3.70;;;1.60;;
76818;SDS011;65772;51.096;17.006;2022-12-29T02:13:34;5.70;;;1.70;;
76818;SDS011;65772;51.096;17.006;2022-12-29T02:16:08;4.60;;;1.80;;
76818;SDS011;65772;51.096;17.006;2022-12-29T02:18:48;3.20;;;1.50;;
76818;SDS011;65772;51.096;17.006;2022-12-29T02:24:40;4.40;;;1.60;;
76818;SDS011;65772;51.096;17.006;2022-12-29T02:27:43;5.80;;;1.50;;
76818;SDS011;65772;51.096;17.006;2022-12-29T02:35:52;4.00;;;1.60;;
76818;SDS011;65772;51.096;17.006;2022-12-29T02:38:34;4.00;;;1.80;;
76818;SDS011;65772;51.096;17.006;2022-12-29T02:41:19;4.20;;;2.60;;
76818;SDS011;65772;51.096;17.006;2022-12-29T02:43:53;5.70;;;2.10;;
76818;SDS011;65772;51.096;17.006;2022-12-29T02:46:31;3.50;;;1.50;;
76818;SDS011;65772;51.096;17.006;2022-12-29T02:51:42;3.60;;;1.60;;
76818;SDS011;65772;51.096;17.006;2022-12-29T02:54:19;3.60;;;1.60;;
76818;SDS011;65772;51.096;17.006;2022-12-29T02:57:10;6.30;;;2.70;;
76818;SDS011;65772;51.096;17.006;2022-12-29T03:02:29;4.50;;;1.70;;
76818;SDS011;65772;51.096;17.006;2022-12-29T03:05:17;3.80;;;1.70;;
76818;SDS011;65772;51.096;17.006;2022-12-29T03:08:03;4.80;;;1.70;;
76818;SDS011;65772;51.096;17.006;2022-12-29T03:10:46;4.00;;;1.70;;
76818;SDS011;65772;51.096;17.006;2022-12-29T03:13:22;4.10;;;1.60;;
76818;SDS011;65772;51.096;17.006;2022-12-29T03:16:17;4.00;;;1.90;;
76818;SDS011;65772;51.096;17.006;2022-12-29T03:21:29;3.60;;;1.70;;
76818;SDS011;65772;51.096;17.006;2022-12-29T03:24:25;6.20;;;2.10;;
76818;SDS011;65772;51.096;17.006;2022-12-29T03:26:59;5.00;;;2.00;;
76818;SDS011;65772;51.096;17.006;2022-12-29T03:29:39;4.00;;;1.90;;
76818;SDS011;65772;51.096;17.006;2022-12-29T03:32:14;4.00;;;1.70;;
76818;SDS011;65772;51.096;17.006;2022-12-29T03:34:45;4.80;;;1.70;;
76818;SDS011;65772;51.096;17.006;2022-12-29T03:37:18;3.10;;;1.20;;
76818;SDS011;65772;51.096;17.006;2022-12-29T03:39:53;4.50;;;2.00;;
76818;SDS011;65772;51.096;17.006;2022-12-29T03:42:25;4.20;;;1.90;;
76818;SDS011;65772;51.096;17.006;2022-12-29T03:45:00;4.80;;;1.80;;
76818;SDS011;65772;51.096;17.006;2022-12-29T03:47:31;4.60;;;1.80;;
76818;SDS011;65772;51.096;17.006;2022-12-29T03:50:02;6.00;;;1.80;;
76818;SDS011;65772;51.096;17.006;2022-12-29T03:52:38;5.30;;;1.90;;
76818;SDS011;65772;51.096;17.006;2022-12-29T03:55:09;3.90;;;1.70;;
76818;SDS011;65772;51.096;17.006;2022-12-29T03:57:40;4.10;;;1.90;;
76818;SDS011;65772;51.096;17.006;2022-12-29T04:00:14;5.40;;;1.90;;
76818;SDS011;65772;51.096;17.006;2022-12-29T04:02:48;4.70;;;2.00;;
76818;SDS011;65772;51.096;17.006;2022-12-29T04:05:23;5.10;;;1.80;;
76818;SDS011;65772;51.096;17.006;2022-12-29T04:07:55;4.90;;;2.00;;
76818;SDS011;65772;51.096;17.006;2022-12-29T04:10:25;5.00;;;2.00;;
76818;SDS011;65772;51.096;17.006;2022-12-29T04:12:59;4.80;;;2.20;;
76818;SDS011;65772;51.096;17.006;2022-12-29T04:15:29;4.20;;;2.00;;
76818;SDS011;65772;51.096;17.006;2022-12-29T04:18:01;5.80;;;2.30;;
76818;SDS011;65772;51.096;17.006;2022-12-29T04:20:33;4.60;;;2.30;;
76818;SDS011;65772;51.096;17.006;2022-12-29T04:23:22;4.40;;;2.10;;
76818;SDS011;65772;51.096;17.006;2022-12-29T04:25:53;4.20;;;2.00;;
76818;SDS011;65772;51.096;17.006;2022-12-29T04:28:25;4.00;;;2.00;;
76818;SDS011;65772;51.096;17.006;2022-12-29T04:31:18;5.00;;;2.00;;
76818;SDS011;65772;51.096;17.006;2022-12-29T04:33:50;4.50;;;2.20;;
76818;SDS011;65772;51.096;17.006;2022-12-29T04:36:21;4.00;;;1.70;;
76818;SDS011;65772;51.096;17.006;2022-12-29T04:38:57;4.90;;;1.90;;
76818;SDS011;65772;51.096;17.006;2022-12-29T04:41:28;5.10;;;2.10;;
76818;SDS011;65772;51.096;17.006;2022-12-29T04:43:58;4.80;;;2.20;;
76818;SDS011;65772;51.096;17.006;2022-12-29T04:46:49;5.30;;;2.20;;
76818;SDS011;65772;51.096;17.006;2022-12-29T04:49:34;3.80;;;1.80;;
76818;SDS011;65772;51.096;17.006;2022-12-29T04:52:16;4.30;;;1.90;;
76818;SDS011;65772;51.096;17.006;2022-12-29T04:54:47;4.30;;;2.10;;
76818;SDS011;65772;51.096;17.006;2022-12-29T04:57:20;4.90;;;2.20;;
76818;SDS011;65772;51.096;17.006;2022-12-29T04:59:54;4.80;;;2.20;;
76818;SDS011;65772;51.096;17.006;2022-12-29T05:02:25;4.40;;;2.00;;
76818;SDS011;65772;51.096;17.006;2022-12-29T05:04:57;5.90;;;2.20;;
76818;SDS011;65772;51.096;17.006;2022-12-29T05:07:28;3.80;;;1.80;;
76818;SDS011;65772;51.096;17.006;2022-12-29T05:10:01;4.20;;;2.00;;
76818;SDS011;65772;51.096;17.006;2022-12-29T05:12:34;5.50;;;2.10;;
76818;SDS011;65772;51.096;17.006;2022-12-29T05:15:08;6.00;;;2.00;;
76818;SDS011;65772;51.096;17.006;2022-12-29T05:17:39;4.80;;;1.90;;
76818;SDS011;65772;51.096;17.006;2022-12-29T05:20:10;5.00;;;1.80;;
76818;SDS011;65772;51.096;17.006;2022-12-29T05:22:42;5.20;;;2.20;;
76818;SDS011;65772;51.096;17.006;2022-12-29T05:25:12;3.80;;;1.80;;
76818;SDS011;65772;51.096;17.006;2022-12-29T05:27:59;5.90;;;2.10;;
76818;SDS011;65772;51.096;17.006;2022-12-29T05:30:41;5.30;;;2.20;;
76818;SDS011;65772;51.096;17.006;2022-12-29T05:33:12;7.00;;;2.00;;
76818;SDS011;65772;51.096;17.006;2022-12-29T05:35:44;4.50;;;1.80;;
76818;SDS011;65772;51.096;17.006;2022-12-29T05:38:15;4.80;;;2.00;;
76818;SDS011;65772;51.096;17.006;2022-12-29T05:40:47;4.00;;;1.90;;
76818;SDS011;65772;51.096;17.006;2022-12-29T05:43:36;3.70;;;1.70;;
76818;SDS011;65772;51.096;17.006;2022-12-29T05:46:21;7.70;;;2.10;;
76818;SDS011;65772;51.096;17.006;2022-12-29T05:49:07;5.90;;;2.00;;
76818;SDS011;65772;51.096;17.006;2022-12-29T05:52:04;4.20;;;1.90;;
76818;SDS011;65772;51.096;17.006;2022-12-29T05:54:35;4.40;;;2.20;;
76818;SDS011;65772;51.096;17.006;2022-12-29T05:57:11;4.20;;;1.80;;
76818;SDS011;65772;51.096;17.006;2022-12-29T05:59:45;4.80;;;1.80;;
76818;SDS011;65772;51.096;17.006;2022-12-29T06:02:16;4.30;;;2.30;;
76818;SDS011;65772;51.096;17.006;2022-12-29T06:04:48;4.90;;;2.20;;
76818;SDS011;65772;51.096;17.006;2022-12-29T06:07:18;7.90;;;2.20;;
76818;SDS011;65772;51.096;17.006;2022-12-29T06:09:50;4.40;;;2.20;;
76818;SDS011;65772;51.096;17.006;2022-12-29T06:12:20;6.30;;;2.40;;
76818;SDS011;65772;51.096;17.006;2022-12-29T06:14:53;6.70;;;2.40;;
76818;SDS011;65772;51.096;17.006;2022-12-29T06:17:24;4.00;;;2.00;;
76818;SDS011;65772;51.096;17.006;2022-12-29T06:19:55;5.40;;;2.50;;
76818;SDS011;65772;51.096;17.006;2022-12-29T06:22:26;4.30;;;2.20;;
76818;SDS011;65772;51.096;17.006;2022-12-29T06:24:56;5.70;;;2.90;;
76818;SDS011;65772;51.096;17.006;2022-12-29T06:27:33;5.10;;;2.60;;
76818;SDS011;65772;51.096;17.006;2022-12-29T06:30:04;5.60;;;2.60;;
76818;SDS011;65772;51.096;17.006;2022-12-29T06:32:38;5.70;;;2.80;;
76818;SDS011;65772;51.096;17.006;2022-12-29T06:35:11;6.10;;;2.60;;
76818;SDS011;65772;51.096;17.006;2022-12-29T06:37:46;6.20;;;2.60;;
76818;SDS011;65772;51.096;17.006;2022-12-29T06:40:16;6.40;;;2.40;;
76818;SDS011;65772;51.096;17.006;2022-12-29T06:43:08;4.30;;;2.30;;
76818;SDS011;65772;51.096;17.006;2022-12-29T06:45:57;5.30;;;2.60;;
76818;SDS011;65772;51.096;17.006;2022-12-29T06:48:28;6.00;;;2.80;;
76818;SDS011;65772;51.096;17.006;2022-12-29T06:50:59;7.40;;;2.40;;
76818;SDS011;65772;51.096;17.006;2022-12-29T06:53:29;6.00;;;2.60;;
76818;SDS011;65772;51.096;17.006;2022-12-29T06:56:00;6.70;;;3.00;;
76818;SDS011;65772;51.096;17.006;2022-12-29T06:58:31;5.10;;;2.60;;
76818;SDS011;65772;51.096;17.006;2022-12-29T07:01:01;5.00;;;2.30;;
76818;SDS011;65772;51.096;17.006;2022-12-29T07:03:32;4.50;;;2.60;;
76818;SDS011;65772;51.096;17.006;2022-12-29T07:06:03;6.60;;;2.60;;
76818;SDS011;65772;51.096;17.006;2022-12-29T07:08:34;7.30;;;3.00;;
76818;SDS011;65772;51.096;17.006;2022-12-29T07:11:06;5.40;;;2.80;;
76818;SDS011;65772;51.096;17.006;2022-12-29T07:13:37;4.50;;;2.30;;
76818;SDS011;65772;51.096;17.006;2022-12-29T07:16:09;7.30;;;2.30;;
76818;SDS011;65772;51.096;17.006;2022-12-29T07:18:40;5.30;;;2.70;;
76818;SDS011;65772;51.096;17.006;2022-12-29T07:21:10;5.80;;;2.80;;
76818;SDS011;65772;51.096;17.006;2022-12-29T07:23:41;4.70;;;2.50;;
76818;SDS011;65772;51.096;17.006;2022-12-29T07:26:13;5.80;;;2.30;;
76818;SDS011;65772;51.096;17.006;2022-12-29T07:28:45;6.80;;;3.00;;
76818;SDS011;65772;51.096;17.006;2022-12-29T07:31:16;6.70;;;2.90;;
76818;SDS011;65772;51.096;17.006;2022-12-29T07:33:48;9.10;;;3.10;;
76818;SDS011;65772;51.096;17.006;2022-12-29T07:36:19;5.00;;;2.50;;
76818;SDS011;65772;51.096;17.006;2022-12-29T07:38:49;5.00;;;2.10;;
76818;SDS011;65772;51.096;17.006;2022-12-29T07:41:19;5.30;;;2.20;;
76818;SDS011;65772;51.096;17.006;2022-12-29T07:43:50;5.10;;;2.60;;
76818;SDS011;65772;51.096;17.006;2022-12-29T07:46:33;5.90;;;2.50;;
76818;SDS011;65772;51.096;17.006;2022-12-29T07:49:23;7.20;;;2.40;;
76818;SDS011;65772;51.096;17.006;2022-12-29T07:51:54;4.00;;;1.60;;
76818;SDS011;65772;51.096;17.006;2022-12-29T07:54:25;3.50;;;2.00;;
76818;SDS011;65772;51.096;17.006;2022-12-29T07:56:55;4.10;;;2.00;;
76818;SDS011;65772;51.096;17.006;2022-12-29T07:59:27;4.60;;;2.20;;
76818;SDS011;65772;51.096;17.006;2022-12-29T08:01:58;4.70;;;2.10;;
76818;SDS011;65772;51.096;17.006;2022-12-29T08:04:29;5.90;;;1.90;;
76818;SDS011;65772;51.096;17.006;2022-12-29T08:07:00;4.50;;;1.70;;
76818;SDS011;65772;51.096;17.006;2022-12-29T08:09:30;3.90;;;1.80;;
76818;SDS011;65772;51.096;17.006;2022-12-29T08:12:01;6.30;;;2.90;;
76818;SDS011;65772;51.096;17.006;2022-12-29T08:14:32;5.90;;;2.80;;
76818;SDS011;65772;51.096;17.006;2022-12-29T08:17:03;6.80;;;3.00;;
76818;SDS011;65772;51.096;17.006;2022-12-29T08:19:33;8.60;;;2.70;;
76818;SDS011;65772;51.096;17.006;2022-12-29T08:22:04;7.40;;;2.80;;
76818;SDS011;65772;51.096;17.006;2022-12-29T08:24:34;7.00;;;3.10;;
76818;SDS011;65772;51.096;17.006;2022-12-29T08:27:05;9.80;;;2.80;;
76818;SDS011;65772;51.096;17.006;2022-12-29T08:29:44;6.00;;;2.80;;
76818;SDS011;65772;51.096;17.006;2022-12-29T08:32:15;6.70;;;3.40;;
76818;SDS011;65772;51.096;17.006;2022-12-29T08:34:46;8.90;;;3.10;;
76818;SDS011;65772;51.096;17.006;2022-12-29T08:37:16;7.30;;;3.20;;
76818;SDS011;65772;51.096;17.006;2022-12-29T08:39:47;8.20;;;3.10;;
76818;SDS011;65772;51.096;17.006;2022-12-29T08:42:17;7.50;;;2.90;;
76818;SDS011;65772;51.096;17.006;2022-12-29T08:44:48;8.90;;;3.20;;
76818;SDS011;65772;51.096;17.006;2022-12-29T08:47:18;7.50;;;3.40;;
76818;SDS011;65772;51.096;17.006;2022-12-29T08:49:49;6.70;;;3.40;;
76818;SDS011;65772;51.096;17.006;2022-12-29T08:52:19;7.90;;;3.70;;
76818;SDS011;65772;51.096;17.006;2022-12-29T08:54:51;7.20;;;3.40;;
76818;SDS011;65772;51.096;17.006;2022-12-29T08:57:22;9.90;;;3.30;;
76818;SDS011;65772;51.096;17.006;2022-12-29T09:00:04;8.20;;;3.80;;
76818;SDS011;65772;51.096;17.006;2022-12-29T09:02:36;5.80;;;3.30;;
76818;SDS011;65772;51.096;17.006;2022-12-29T09:05:08;9.10;;;3.80;;
76818;SDS011;65772;51.096;17.006;2022-12-29T09:07:39;7.40;;;3.70;;
76818;SDS011;65772;51.096;17.006;2022-12-29T09:10:10;7.50;;;3.90;;
76818;SDS011;65772;51.096;17.006;2022-12-29T09:12:40;7.90;;;3.90;;
76818;SDS011;65772;51.096;17.006;2022-12-29T09:15:11;6.90;;;3.70;;
76818;SDS011;65772;51.096;17.006;2022-12-29T09:17:43;7.50;;;3.50;;
76818;SDS011;65772;51.096;17.006;2022-12-29T09:20:14;11.10;;;4.00;;
76818;SDS011;65772;51.096;17.006;2022-12-29T09:22:47;9.00;;;4.00;;
76818;SDS011;65772;51.096;17.006;2022-12-29T09:25:18;6.00;;;3.20;;
76818;SDS011;65772;51.096;17.006;2022-12-29T09:27:51;7.60;;;3.80;;
76818;SDS011;65772;51.096;17.006;2022-12-29T09:30:22;6.90;;;3.50;;
76818;SDS011;65772;51.096;17.006;2022-12-29T09:32:53;5.70;;;2.90;;
76818;SDS011;65772;51.096;17.006;2022-12-29T09:35:24;8.90;;;2.80;;
76818;SDS011;65772;51.096;17.006;2022-12-29T09:37:54;6.40;;;3.10;;
76818;SDS011;65772;51.096;17.006;2022-12-29T09:40:26;8.10;;;3.90;;
76818;SDS011;65772;51.096;17.006;2022-12-29T09:43:05;7.40;;;3.40;;
76818;SDS011;65772;51.096;17.006;2022-12-29T09:45:47;7.50;;;3.30;;
76818;SDS011;65772;51.096;17.006;2022-12-29T09:48:29;7.60;;;3.20;;
76818;SDS011;65772;51.096;17.006;2022-12-29T09:51:05;8.60;;;3.80;;
76818;SDS011;65772;51.096;17.006;2022-12-29T09:53:42;7.10;;;3.50;;
76818;SDS011;65772;51.096;17.006;2022-12-29T09:56:17;6.90;;;3.20;;
76818;SDS011;65772;51.096;17.006;2022-12-29T09:58:52;8.50;;;3.70;;
76818;SDS011;65772;51.096;17.006;2022-12-29T10:01:26;9.60;;;4.10;;
76818;SDS011;65772;51.096;17.006;2022-12-29T10:04:02;7.50;;;3.30;;
76818;SDS011;65772;51.096;17.006;2022-12-29T10:06:35;6.30;;;3.20;;
76818;SDS011;65772;51.096;17.006;2022-12-29T10:09:32;8.20;;;3.20;;
76818;SDS011;65772;51.096;17.006;2022-12-29T10:12:10;9.20;;;3.20;;
76818;SDS011;65772;51.096;17.006;2022-12-29T10:14:58;8.00;;;3.00;;
76818;SDS011;65772;51.096;17.006;2022-12-29T10:17:40;6.40;;;2.40;;
76818;SDS011;65772;51.096;17.006;2022-12-29T10:20:20;6.30;;;2.30;;
76818;SDS011;65772;51.096;17.006;2022-12-29T10:23:08;6.00;;;2.50;;
76818;SDS011;65772;51.096;17.006;2022-12-29T10:25:49;5.00;;;2.60;;
76818;SDS011;65772;51.096;17.006;2022-12-29T10:28:23;8.10;;;2.60;;
76818;SDS011;65772;51.096;17.006;2022-12-29T10:31:02;4.30;;;2.20;;
76818;SDS011;65772;51.096;17.006;2022-12-29T10:33:39;5.70;;;2.30;;
76818;SDS011;65772;51.096;17.006;2022-12-29T10:36:13;5.60;;;2.30;;
76818;SDS011;65772;51.096;17.006;2022-12-29T10:38:51;4.20;;;2.30;;
76818;SDS011;65772;51.096;17.006;2022-12-29T10:41:32;7.40;;;2.70;;
76818;SDS011;65772;51.096;17.006;2022-12-29T10:44:08;4.90;;;2.30;;
76818;SDS011;65772;51.096;17.006;2022-12-29T10:46:43;5.20;;;2.30;;
76818;SDS011;65772;51.096;17.006;2022-12-29T10:49:19;5.70;;;2.30;;
76818;SDS011;65772;51.096;17.006;2022-12-29T10:51:50;6.20;;;2.30;;
76818;SDS011;65772;51.096;17.006;2022-12-29T10:54:25;4.80;;;2.00;;
76818;SDS011;65772;51.096;17.006;2022-12-29T10:57:01;5.90;;;2.20;;
76818;SDS011;65772;51.096;17.006;2022-12-29T10:59:35;5.40;;;2.40;;
76818;SDS011;65772;51.096;17.006;2022-12-29T11:02:15;4.60;;;2.10;;
76818;SDS011;65772;51.096;17.006;2022-12-29T11:04:59;3.80;;;1.90;;
76818;SDS011;65772;51.096;17.006;2022-12-29T11:07:36;5.60;;;2.40;;
76818;SDS011;65772;51.096;17.006;2022-12-29T11:10:21;6.60;;;2.70;;
76818;SDS011;65772;51.096;17.006;2022-12-29T11:13:04;5.40;;;2.40;;
76818;SDS011;65772;51.096;17.006;2022-12-29T11:15:43;5.90;;;2.90;;
76818;SDS011;65772;51.096;17.006;2022-12-29T11:18:22;5.80;;;2.10;;
76818;SDS011;65772;51.096;17.006;2022-12-29T11:20:54;4.00;;;2.10;;
76818;SDS011;65772;51.096;17.006;2022-12-29T11:23:30;6.60;;;2.30;;
76818;SDS011;65772;51.096;17.006;2022-12-29T11:26:06;5.90;;;2.40;;
76818;SDS011;65772;51.096;17.006;2022-12-29T11:28:45;3.90;;;2.00;;
76818;SDS011;65772;51.096;17.006;2022-12-29T11:31:37;7.40;;;2.50;;
76818;SDS011;65772;51.096;17.006;2022-12-29T11:34:14;4.20;;;1.90;;
76818;SDS011;65772;51.096;17.006;2022-12-29T11:36:49;5.70;;;2.60;;
76818;SDS011;65772;51.096;17.006;2022-12-29T11:39:27;5.20;;;2.30;;
76818;SDS011;65772;51.096;17.006;2022-12-29T11:42:01;4.30;;;2.10;;
76818;SDS011;65772;51.096;17.006;2022-12-29T11:44:37;5.40;;;2.60;;
76818;SDS011;65772;51.096;17.006;2022-12-29T11:47:21;6.30;;;2.40;;
76818;SDS011;65772;51.096;17.006;2022-12-29T11:49:56;4.50;;;2.30;;
76818;SDS011;65772;51.096;17.006;2022-12-29T11:52:29;7.50;;;2.70;;
76818;SDS011;65772;51.096;17.006;2022-12-29T11:55:03;6.40;;;2.80;;
76818;SDS011;65772;51.096;17.006;2022-12-29T11:57:46;5.80;;;2.60;;
76818;SDS011;65772;51.096;17.006;2022-12-29T12:00:19;7.10;;;3.00;;
76818;SDS011;65772;51.096;17.006;2022-12-29T12:02:54;8.80;;;2.50;;
76818;SDS011;65772;51.096;17.006;2022-12-29T12:05:33;4.20;;;2.00;;
76818;SDS011;65772;51.096;17.006;2022-12-29T12:08:11;6.80;;;2.20;;
76818;SDS011;65772;51.096;17.006;2022-12-29T12:10:48;6.00;;;2.70;;
76818;SDS011;65772;51.096;17.006;2022-12-29T12:13:29;8.20;;;3.40;;
76818;SDS011;65772;51.096;17.006;2022-12-29T12:16:04;9.10;;;3.80;;
76818;SDS011;65772;51.096;17.006;2022-12-29T12:18:40;5.50;;;2.70;;
76818;SDS011;65772;51.096;17.006;2022-12-29T12:21:15;8.90;;;2.70;;
76818;SDS011;65772;51.096;17.006;2022-12-29T12:24:02;5.70;;;2.80;;
76818;SDS011;65772;51.096;17.006;2022-12-29T12:26:49;5.60;;;2.60;;
76818;SDS011;65772;51.096;17.006;2022-12-29T12:29:26;7.70;;;2.70;;
76818;SDS011;65772;51.096;17.006;2022-12-29T12:32:08;4.70;;;2.40;;
76818;SDS011;65772;51.096;17.006;2022-12-29T12:34:45;6.30;;;2.60;;
76818;SDS011;65772;51.096;17.006;2022-12-29T12:37:22;4.90;;;2.00;;
76818;SDS011;65772;51.096;17.006;2022-12-29T12:43:16;6.80;;;3.20;;
76818;SDS011;65772;51.096;17.006;2022-12-29T12:46:04;4.60;;;2.20;;
76818;SDS011;65772;51.096;17.006;2022-12-29T12:48:52;4.70;;;2.40;;
76818;SDS011;65772;51.096;17.006;2022-12-29T12:51:32;5.60;;;2.30;;
76818;SDS011;65772;51.096;17.006;2022-12-29T12:54:14;6.90;;;2.50;;
76818;SDS011;65772;51.096;17.006;2022-12-29T12:57:00;4.30;;;2.10;;
76818;SDS011;65772;51.096;17.006;2022-12-29T12:59:44;5.00;;;2.50;;
76818;SDS011;65772;51.096;17.006;2022-12-29T13:02:28;4.90;;;2.30;;
76818;SDS011;65772;51.096;17.006;2022-12-29T13:05:19;6.20;;;2.00;;
76818;SDS011;65772;51.096;17.006;2022-12-29T13:08:02;4.70;;;2.20;;
76818;SDS011;65772;51.096;17.006;2022-12-29T13:10:47;6.00;;;2.10;;
76818;SDS011;65772;51.096;17.006;2022-12-29T13:13:31;7.60;;;2.50;;
76818;SDS011;65772;51.096;17.006;2022-12-29T13:16:20;9.00;;;3.10;;
76818;SDS011;65772;51.096;17.006;2022-12-29T13:18:59;5.90;;;2.50;;
76818;SDS011;65772;51.096;17.006;2022-12-29T13:21:42;4.00;;;2.00;;
76818;SDS011;65772;51.096;17.006;2022-12-29T13:24:30;5.60;;;2.30;;
76818;SDS011;65772;51.096;17.006;2022-12-29T13:27:13;4.30;;;2.00;;
76818;SDS011;65772;51.096;17.006;2022-12-29T13:29:53;4.70;;;2.10;;
76818;SDS011;65772;51.096;17.006;2022-12-29T13:32:34;5.40;;;2.20;;
76818;SDS011;65772;51.096;17.006;2022-12-29T13:35:20;4.90;;;2.70;;
76818;SDS011;65772;51.096;17.006;2022-12-29T13:38:03;5.90;;;2.60;;
76818;SDS011;65772;51.096;17.006;2022-12-29T13:40:40;4.20;;;2.30;;
76818;SDS011;65772;51.096;17.006;2022-12-29T13:43:15;5.60;;;2.30;;
76818;SDS011;65772;51.096;17.006;2022-12-29T13:45:48;4.50;;;2.20;;
76818;SDS011;65772;51.096;17.006;2022-12-29T13:48:29;5.40;;;2.30;;
76818;SDS011;65772;51.096;17.006;2022-12-29T13:51:04;5.70;;;2.20;;
76818;SDS011;65772;51.096;17.006;2022-12-29T13:53:37;5.70;;;2.70;;
76818;SDS011;65772;51.096;17.006;2022-12-29T13:56:18;5.60;;;2.60;;
76818;SDS011;65772;51.096;17.006;2022-12-29T13:58:54;6.20;;;2.50;;
76818;SDS011;65772;51.096;17.006;2022-12-29T14:01:34;5.90;;;2.70;;
76818;SDS011;65772;51.096;17.006;2022-12-29T14:04:11;5.30;;;2.40;;
76818;SDS011;65772;51.096;17.006;2022-12-29T14:06:43;5.60;;;3.20;;
76818;SDS011;65772;51.096;17.006;2022-12-29T14:12:20;7.50;;;3.00;;
76818;SDS011;65772;51.096;17.006;2022-12-29T14:15:03;8.10;;;3.70;;
76818;SDS011;65772;51.096;17.006;2022-12-29T14:17:44;6.30;;;3.10;;
76818;SDS011;65772;51.096;17.006;2022-12-29T14:22:59;6.70;;;3.20;;
76818;SDS011;65772;51.096;17.006;2022-12-29T14:25:58;6.20;;;3.20;;
76818;SDS011;65772;51.096;17.006;2022-12-29T14:28:38;7.20;;;3.40;;
76818;SDS011;65772;51.096;17.006;2022-12-29T14:36:55;7.70;;;4.40;;
76818;SDS011;65772;51.096;17.006;2022-12-29T14:42:05;7.50;;;4.00;;
76818;SDS011;65772;51.096;17.006;2022-12-29T14:44:47;11.50;;;4.60;;
76818;SDS011;65772;51.096;17.006;2022-12-29T14:47:20;11.80;;;5.30;;
76818;SDS011;65772;51.096;17.006;2022-12-29T14:49:56;14.90;;;5.60;;
76818;SDS011;65772;51.096;17.006;2022-12-29T14:52:32;11.50;;;5.90;;
76818;SDS011;65772;51.096;17.006;2022-12-29T14:55:36;10.30;;;4.70;;
76818;SDS011;65772;51.096;17.006;2022-12-29T14:58:14;9.90;;;5.20;;
76818;SDS011;65772;51.096;17.006;2022-12-29T15:00:47;10.00;;;5.10;;
76818;SDS011;65772;51.096;17.006;2022-12-29T15:03:19;11.30;;;5.50;;
76818;SDS011;65772;51.096;17.006;2022-12-29T15:05:52;11.80;;;5.90;;
76818;SDS011;65772;51.096;17.006;2022-12-29T15:08:25;10.80;;;5.20;;
76818;SDS011;65772;51.096;17.006;2022-12-29T15:11:00;8.30;;;4.80;;
76818;SDS011;65772;51.096;17.006;2022-12-29T15:13:34;9.30;;;5.20;;
76818;SDS011;65772;51.096;17.006;2022-12-29T15:16:17;10.30;;;5.60;;
76818;SDS011;65772;51.096;17.006;2022-12-29T15:18:52;10.60;;;5.00;;
76818;SDS011;65772;51.096;17.006;2022-12-29T15:21:24;9.50;;;4.90;;
76818;SDS011;65772;51.096;17.006;2022-12-29T15:23:56;10.80;;;4.80;;
76818;SDS011;65772;51.096;17.006;2022-12-29T15:26:36;12.20;;;5.90;;
76818;SDS011;65772;51.096;17.006;2022-12-29T15:29:26;10.00;;;5.10;;
76818;SDS011;65772;51.096;17.006;2022-12-29T15:32:01;11.30;;;6.00;;
76818;SDS011;65772;51.096;17.006;2022-12-29T15:34:47;13.30;;;6.80;;
76818;SDS011;65772;51.096;17.006;2022-12-29T15:37:23;11.00;;;6.00;;
76818;SDS011;65772;51.096;17.006;2022-12-29T15:39:55;12.70;;;6.90;;
76818;SDS011;65772;51.096;17.006;2022-12-29T15:42:43;9.50;;;5.50;;
76818;SDS011;65772;51.096;17.006;2022-12-29T15:45:23;9.60;;;5.90;;
76818;SDS011;65772;51.096;17.006;2022-12-29T15:48:10;12.90;;;6.00;;
76818;SDS011;65772;51.096;17.006;2022-12-29T15:50:48;13.10;;;6.80;;
76818;SDS011;65772;51.096;17.006;2022-12-29T15:53:20;12.70;;;6.30;;
76818;SDS011;65772;51.096;17.006;2022-12-29T15:55:56;14.10;;;6.90;;
76818;SDS011;65772;51.096;17.006;2022-12-29T15:58:30;11.30;;;6.60;;
76818;SDS011;65772;51.096;17.006;2022-12-29T16:01:15;12.60;;;6.00;;
76818;SDS011;65772;51.096;17.006;2022-12-29T16:03:52;12.30;;;6.30;;
76818;SDS011;65772;51.096;17.006;2022-12-29T16:06:27;12.50;;;6.50;;